Pika — WD16893 — position and weather

sailwx.info

Track history (hours):
 
Tides and Currents Weather Stations Pressure Air Temp Water Temp Dewpoint Dewpoint Depression Visibility Wind Speed Wind Dir Waves Ship Positions

Pika

Last reported at 2017-Nov-19 17:35 UTC. Time now 2017-Dec-12 08:29 UTC.
Position N 25°33' W 080°06'.
Warning: this ship's position is 22 days out of date.

Length 11 m.

Type: Sailing vessel. MMSI: 367723290.

Date/timePositionNaut miles runAvg speedWind from/ knotsBaromVisibWave heightAir tempDewpointWater temp
2017-Nov-19 17:35N 25°33' W 080°06'2 7.9
2017-Nov-19 17:22N 25°35' W 080°05'3 7.6
2017-Nov-19 16:59N 25°38' W 080°05'4 7.6
2017-Nov-19 16:29N 25°42' W 080°05'4 8.0
2017-Nov-19 16:00N 25°46' W 080°05'4 7.6
2017-Nov-19 15:30N 25°49' W 080°04'4 7.4
2017-Nov-19 15:00N 25°53' W 080°04'3 6.0
2017-Nov-19 14:28N 25°56' W 080°04'5 7.8
2017-Nov-19 13:52N 26°01' W 080°04'3 7.8
2017-Nov-19 13:26N 26°04' W 080°05'3 4.4
2017-Nov-19 12:47N 26°06' W 080°07'1 3.5
2017-Nov-19 12:29N 26°07' W 080°07'  
2017-Nov-12 02:52N 26°06' W 080°07'0 0.8
2017-Nov-12 02:28N 26°06' W 080°07'1 0.0
2017-Nov-10 19:14N 26°07' W 080°07'0 0.0
2017-Nov-10 18:59N 26°07' W 080°07'0 0.0
2017-Nov-10 18:29N 26°07' W 080°07'0 0.0
2017-Nov-10 17:59N 26°07' W 080°07'0 0.0
2017-Nov-10 17:26N 26°07' W 080°07'0 0.0
2017-Nov-10 16:56N 26°07' W 080°07'0 0.0
2017-Nov-10 16:29N 26°07' W 080°07'0 0.0
2017-Nov-10 15:59N 26°07' W 080°07'0 0.0
2017-Nov-10 15:29N 26°07' W 080°07'0 0.0
2017-Nov-10 14:59N 26°07' W 080°07'0 0.0
2017-Nov-10 14:29N 26°07' W 080°07'0 0.0
2017-Nov-10 13:59N 26°07' W 080°07'0 0.0
2017-Nov-10 13:20N 26°07' W 080°07'0 0.0
2017-Nov-10 12:57N 26°07' W 080°07'0 0.0
2017-Nov-10 04:48N 26°07' W 080°07'0 0.0
2017-Nov-10 03:14N 26°07' W 080°07'  
Track history (hours):
 
Tides and Currents Weather Stations Pressure Air Temp Water Temp Dewpoint Dewpoint Depression Visibility Wind Speed Wind Dir Waves Ship Positions

Pika

Last reported at 2017-Nov-19 17:35 UTC. Time now 2017-Dec-12 08:29 UTC.
Position N 25°33' W 080°06'.
Warning: this ship's position is 22 days out of date.

Length 11 m.

Type: Sailing vessel. MMSI: 367723290.

Date/timePositionNaut miles runAvg speedWind from/ knotsBaromVisibWave heightAir tempDewpointWater temp
2017-Nov-19 17:35N 25°33' W 080°06'2 7.9
2017-Nov-19 17:22N 25°35' W 080°05'3 7.6
2017-Nov-19 16:59N 25°38' W 080°05'4 7.6
2017-Nov-19 16:29N 25°42' W 080°05'4 8.0
2017-Nov-19 16:00N 25°46' W 080°05'4 7.6
2017-Nov-19 15:30N 25°49' W 080°04'4 7.4
2017-Nov-19 15:00N 25°53' W 080°04'3 6.0
2017-Nov-19 14:28N 25°56' W 080°04'5 7.8
2017-Nov-19 13:52N 26°01' W 080°04'3 7.8
2017-Nov-19 13:26N 26°04' W 080°05'3 4.4
2017-Nov-19 12:47N 26°06' W 080°07'1 3.5
2017-Nov-19 12:29N 26°07' W 080°07'  
2017-Nov-12 02:52N 26°06' W 080°07'0 0.8
2017-Nov-12 02:28N 26°06' W 080°07'1 0.0
2017-Nov-10 19:14N 26°07' W 080°07'0 0.0
2017-Nov-10 18:59N 26°07' W 080°07'0 0.0
2017-Nov-10 18:29N 26°07' W 080°07'0 0.0
2017-Nov-10 17:59N 26°07' W 080°07'0 0.0
2017-Nov-10 17:26N 26°07' W 080°07'0 0.0
2017-Nov-10 16:56N 26°07' W 080°07'0 0.0
2017-Nov-10 16:29N 26°07' W 080°07'0 0.0
2017-Nov-10 15:59N 26°07' W 080°07'0 0.0
2017-Nov-10 15:29N 26°07' W 080°07'0 0.0
2017-Nov-10 14:59N 26°07' W 080°07'0 0.0
2017-Nov-10 14:29N 26°07' W 080°07'0 0.0
2017-Nov-10 13:59N 26°07' W 080°07'0 0.0
2017-Nov-10 13:20N 26°07' W 080°07'0 0.0
2017-Nov-10 12:57N 26°07' W 080°07'0 0.0
2017-Nov-10 04:48N 26°07' W 080°07'0 0.0
2017-Nov-10 03:14N 26°07' W 080°07'  

Dump ship's entire track history